Time,TemperatureF,DewpointF,PressureIn,WindDirection,WindDirectionDegrees,WindSpeedMPH,WindSpeedGustMPH,Humidity,HourlyPrecipIn,Conditions,Clouds,dailyrainin,SoftwareType,DateUTC
2013-01-21 00:00:00,23.7,11.0,29.46,WSW,247,14.0,14.0,52,0.00,,,0.00,Rainwise IP-100,2013-01-21 05:00:00,
2013-01-21 00:02:00,23.4,8.0,29.46,West,270,9.0,14.0,52,0.00,,,0.00,Rainwise IP-100,2013-01-21 05:02:00,
2013-01-21 00:06:00,23.3,11.0,29.47,SSW,202,9.0,14.0,57,0.00,,,0.00,Rainwise IP-100,2013-01-21 05:06:00,
2013-01-21 00:11:00,23.3,11.0,29.46,WSW,247,8.0,9.0,61,0.00,,,0.00,Rainwise IP-100,2013-01-21 05:11:00,
2013-01-21 00:16:00,22.9,11.0,29.46,WSW,247,11.0,13.0,57,0.00,,,0.00,Rainwise IP-100,2013-01-21 05:16:00,
2013-01-21 00:21:00,22.8,11.0,29.46,WSW,247,6.0,13.0,60,0.00,,,0.00,Rainwise IP-100,2013-01-21 05:21:00,
2013-01-21 00:26:00,22.6,11.0,29.46,West,270,9.0,12.0,59,0.00,,,0.00,Rainwise IP-100,2013-01-21 05:26:00,
2013-01-21 00:31:00,22.4,11.0,29.46,West,270,7.0,12.0,60,0.00,,,0.00,Rainwise IP-100,2013-01-21 05:31:00,
2013-01-21 00:36:00,22.3,11.0,29.46,West,270,8.0,12.0,61,0.00,,,0.00,Rainwise IP-100,2013-01-21 05:36:00,
2013-01-21 00:42:00,22.0,11.0,29.46,WSW,247,9.0,22.0,58,0.00,,,0.00,Rainwise IP-100,2013-01-21 05:42:00,
2013-01-21 00:47:00,21.7,11.0,29.46,SSW,202,3.0,16.0,55,0.00,,,0.00,Rainwise IP-100,2013-01-21 05:47:00,
2013-01-21 00:52:00,21.5,11.0,29.47,West,270,11.0,14.0,55,0.00,,,0.00,Rainwise IP-100,2013-01-21 05:52:00,
2013-01-21 00:57:00,21.4,8.0,29.47,SW,225,4.0,17.0,57,0.00,,,0.00,Rainwise IP-100,2013-01-21 05:57:00,
2013-01-21 01:02:00,21.1,11.0,29.47,West,270,7.0,17.0,61,0.00,,,0.00,Rainwise IP-100,2013-01-21 06:02:00,
2013-01-21 01:07:00,21.0,8.0,29.48,SW,225,9.0,14.0,59,0.00,,,0.00,Rainwise IP-100,2013-01-21 06:07:00,
2013-01-21 01:12:00,20.9,11.0,29.48,WSW,247,13.0,13.0,61,0.00,,,0.00,Rainwise IP-100,2013-01-21 06:12:00,
2013-01-21 01:17:00,20.7,8.0,29.49,SW,225,3.0,13.0,58,0.00,,,0.00,Rainwise IP-100,2013-01-21 06:17:00,
2013-01-21 01:22:00,20.5,8.0,29.49,West,270,6.0,14.0,56,0.00,,,0.00,Rainwise IP-100,2013-01-21 06:22:00,
2013-01-21 01:27:00,20.5,8.0,29.49,WSW,247,9.0,12.0,59,0.00,,,0.00,Rainwise IP-100,2013-01-21 06:27:00,
2013-01-21 01:32:00,20.4,8.0,29.49,WSW,247,7.0,18.0,58,0.00,,,0.00,Rainwise IP-100,2013-01-21 06:32:00,
2013-01-21 01:37:00,20.2,8.0,29.49,West,270,12.0,16.0,59,0.00,,,0.00,Rainwise IP-100,2013-01-21 06:37:00,
2013-01-21 01:42:00,19.9,8.0,29.49,West,270,9.0,17.0,56,0.00,,,0.00,Rainwise IP-100,2013-01-21 06:42:00,
2013-01-21 01:47:00,19.9,8.0,29.50,West,270,8.0,19.0,57,0.00,,,0.00,Rainwise IP-100,2013-01-21 06:47:00,
2013-01-21 01:52:00,19.8,8.0,29.50,West,270,6.0,12.0,54,0.00,,,0.00,Rainwise IP-100,2013-01-21 06:52:00,
2013-01-21 01:57:00,19.7,8.0,29.51,WSW,247,6.0,17.0,56,0.00,,,0.00,Rainwise IP-100,2013-01-21 06:57:00,
2013-01-21 02:02:00,19.8,8.0,29.51,WSW,247,7.0,12.0,59,0.00,,,0.00,Rainwise IP-100,2013-01-21 07:02:00,
2013-01-21 02:07:00,19.7,8.0,29.51,WSW,247,9.0,14.0,56,0.00,,,0.00,Rainwise IP-100,2013-01-21 07:07:00,
2013-01-21 02:12:00,19.5,8.0,29.51,SW,225,6.0,14.0,55,0.00,,,0.00,Rainwise IP-100,2013-01-21 07:12:00,
2013-01-21 02:17:00,19.5,8.0,29.51,West,270,2.0,14.0,57,0.00,,,0.00,Rainwise IP-100,2013-01-21 07:17:00,
2013-01-21 02:22:00,19.4,8.0,29.51,West,270,4.0,12.0,59,0.00,,,0.00,Rainwise IP-100,2013-01-21 07:22:00,
2013-01-21 02:27:00,19.2,8.0,29.52,WSW,247,4.0,17.0,57,0.00,,,0.00,Rainwise IP-100,2013-01-21 07:27:00,
2013-01-21 02:32:00,19.3,11.0,29.52,WSW,247,16.0,16.0,60,0.00,,,0.00,Rainwise IP-100,2013-01-21 07:32:00,
2013-01-21 02:37:00,19.2,11.0,29.51,West,270,12.0,16.0,61,0.00,,,0.00,Rainwise IP-100,2013-01-21 07:37:00,
2013-01-21 02:42:00,19.0,8.0,29.51,WSW,247,8.0,16.0,59,0.00,,,0.00,Rainwise IP-100,2013-01-21 07:42:00,
2013-01-21 02:47:00,18.8,8.0,29.52,SE,135,4.0,16.0,55,0.00,,,0.00,Rainwise IP-100,2013-01-21 07:47:00,
2013-01-21 02:52:00,19.1,11.0,29.53,SW,225,6.0,15.0,60,0.00,,,0.00,Rainwise IP-100,2013-01-21 07:52:00,
2013-01-21 02:57:00,18.9,11.0,29.53,WSW,247,4.0,15.0,62,0.00,,,0.00,Rainwise IP-100,2013-01-21 07:57:00,
2013-01-21 03:02:00,18.6,8.0,29.53,West,270,8.0,15.0,58,0.00,,,0.00,Rainwise IP-100,2013-01-21 08:02:00,
2013-01-21 03:07:00,18.6,11.0,29.53,SW,225,7.0,15.0,62,0.00,,,0.00,Rainwise IP-100,2013-01-21 08:07:00,
2013-01-21 03:12:00,18.3,8.0,29.53,WSW,247,7.0,14.0,60,0.00,,,0.00,Rainwise IP-100,2013-01-21 08:12:00,
2013-01-21 03:17:00,18.3,8.0,29.54,WSW,247,5.0,14.0,59,0.00,,,0.00,Rainwise IP-100,2013-01-21 08:17:00,
2013-01-21 03:22:00,18.1,8.0,29.54,NNW,337,1.0,14.0,62,0.00,,,0.00,Rainwise IP-100,2013-01-21 08:22:00,
2013-01-21 03:27:00,17.9,8.0,29.53,WSW,247,11.0,18.0,58,0.00,,,0.00,Rainwise IP-100,2013-01-21 08:27:00,
2013-01-21 03:32:00,17.7,8.0,29.54,West,270,7.0,13.0,58,0.00,,,0.00,Rainwise IP-100,2013-01-21 08:32:00,
2013-01-21 03:37:00,17.6,8.0,29.54,WSW,247,5.0,12.0,57,0.00,,,0.00,Rainwise IP-100,2013-01-21 08:37:00,
2013-01-21 03:42:00,17.6,8.0,29.54,WSW,247,7.0,12.0,57,0.00,,,0.00,Rainwise IP-100,2013-01-21 08:42:00,
2013-01-21 03:47:00,17.4,8.0,29.55,WSW,247,6.0,13.0,58,0.00,,,0.00,Rainwise IP-100,2013-01-21 08:47:00,
2013-01-21 03:52:00,17.4,8.0,29.55,WSW,247,6.0,9.0,60,0.00,,,0.00,Rainwise IP-100,2013-01-21 08:52:00,
2013-01-21 03:57:00,17.2,8.0,29.55,West,270,7.0,14.0,57,0.00,,,0.00,Rainwise IP-100,2013-01-21 08:57:00,
2013-01-21 04:02:00,16.9,8.0,29.55,West,270,6.0,9.0,57,0.00,,,0.00,Rainwise IP-100,2013-01-21 09:02:00,
2013-01-21 04:07:00,16.9,8.0,29.55,WNW,292,5.0,11.0,59,0.00,,,0.00,Rainwise IP-100,2013-01-21 09:07:00,
2013-01-21 04:12:00,16.9,8.0,29.56,NW,315,2.0,9.0,59,0.00,,,0.00,Rainwise IP-100,2013-01-21 09:12:00,
2013-01-21 04:17:00,16.9,8.0,29.56,WSW,247,5.0,8.0,60,0.00,,,0.00,Rainwise IP-100,2013-01-21 09:17:00,
2013-01-21 04:22:00,16.7,8.0,29.56,West,270,6.0,9.0,57,0.00,,,0.00,Rainwise IP-100,2013-01-21 09:22:00,
2013-01-21 04:27:00,16.7,8.0,29.56,West,270,13.0,13.0,58,0.00,,,0.00,Rainwise IP-100,2013-01-21 09:27:00,
2013-01-21 04:32:00,16.9,8.0,29.56,WSW,247,8.0,13.0,62,0.00,,,0.00,Rainwise IP-100,2013-01-21 09:32:00,
2013-01-21 04:37:00,16.7,8.0,29.56,WSW,247,6.0,10.0,62,0.00,,,0.00,Rainwise IP-100,2013-01-21 09:37:00,
2013-01-21 04:42:00,16.3,4.0,29.56,WSW,247,5.0,12.0,59,0.00,,,0.00,Rainwise IP-100,2013-01-21 09:42:00,
2013-01-21 04:47:00,16.5,11.0,29.57,SW,225,10.0,11.0,67,0.00,,,0.00,Rainwise IP-100,2013-01-21 09:47:00,
2013-01-21 04:52:00,16.5,8.0,29.56,WSW,247,4.0,12.0,64,0.00,,,0.00,Rainwise IP-100,2013-01-21 09:52:00,
2013-01-21 04:57:00,16.3,4.0,29.56,WSW,247,9.0,11.0,61,0.00,,,0.00,Rainwise IP-100,2013-01-21 09:57:00,
2013-01-21 05:02:00,15.9,8.0,29.57,WSW,247,7.0,14.0,63,0.00,,,0.00,Rainwise IP-100,2013-01-21 10:02:00,
2013-01-21 05:07:00,16.1,8.0,29.57,WSW,247,4.0,12.0,62,0.00,,,0.00,Rainwise IP-100,2013-01-21 10:07:00,
2013-01-21 05:12:00,15.9,8.0,29.57,West,270,8.0,13.0,62,0.00,,,0.00,Rainwise IP-100,2013-01-21 10:12:00,
2013-01-21 05:17:00,15.6,4.0,29.57,WSW,247,4.0,13.0,61,0.00,,,0.00,Rainwise IP-100,2013-01-21 10:17:00,
2013-01-21 05:22:00,15.8,8.0,29.57,WSW,247,6.0,11.0,65,0.00,,,0.00,Rainwise IP-100,2013-01-21 10:22:00,
2013-01-21 05:27:00,15.6,4.0,29.59,WSW,247,6.0,12.0,61,0.00,,,0.00,Rainwise IP-100,2013-01-21 10:27:00,
2013-01-21 05:32:00,15.4,8.0,29.58,West,270,6.0,11.0,62,0.00,,,0.00,Rainwise IP-100,2013-01-21 10:32:00,
2013-01-21 05:37:00,15.1,4.0,29.59,WSW,247,9.0,13.0,59,0.00,,,0.00,Rainwise IP-100,2013-01-21 10:37:00,
2013-01-21 05:42:00,15.3,8.0,29.59,West,270,6.0,13.0,63,0.00,,,0.00,Rainwise IP-100,2013-01-21 10:42:00,
2013-01-21 05:47:00,15.1,8.0,29.59,West,270,7.0,11.0,63,0.00,,,0.00,Rainwise IP-100,2013-01-21 10:47:00,
2013-01-21 05:52:00,14.7,4.0,29.59,West,270,7.0,11.0,60,0.00,,,0.00,Rainwise IP-100,2013-01-21 10:52:00,
2013-01-21 05:57:00,14.8,8.0,29.60,WSW,247,2.0,11.0,65,0.00,,,0.00,Rainwise IP-100,2013-01-21 10:57:00,
2013-01-21 06:15:00,14.1,4.0,29.61,WSW,247,6.0,10.0,60,0.00,,,0.00,Rainwise IP-100,2013-01-21 11:15:00,
2013-01-21 06:20:00,14.2,4.0,29.61,SSW,202,4.0,12.0,63,0.00,,,0.00,Rainwise IP-100,2013-01-21 11:20:00,
2013-01-21 06:25:00,13.8,4.0,29.61,West,270,8.0,11.0,59,0.00,,,0.00,Rainwise IP-100,2013-01-21 11:25:00,
2013-01-21 06:30:00,13.9,4.0,29.62,SW,225,3.0,11.0,62,0.00,,,0.00,Rainwise IP-100,2013-01-21 11:30:00,
2013-01-21 06:35:00,13.9,4.0,29.61,West,270,6.0,10.0,65,0.00,,,0.00,Rainwise IP-100,2013-01-21 11:35:00,
2013-01-21 06:40:00,13.9,4.0,29.61,WSW,247,7.0,10.0,63,0.00,,,0.00,Rainwise IP-100,2013-01-21 11:40:00,
2013-01-21 06:45:00,13.9,4.0,29.61,WSW,247,5.0,10.0,65,0.00,,,0.00,Rainwise IP-100,2013-01-21 11:45:00,
2013-01-21 06:50:00,13.8,4.0,29.62,WSW,247,4.0,11.0,64,0.00,,,0.00,Rainwise IP-100,2013-01-21 11:50:00,
2013-01-21 06:55:00,13.7,4.0,29.62,WSW,247,7.0,9.0,63,0.00,,,0.00,Rainwise IP-100,2013-01-21 11:55:00,
2013-01-21 07:00:00,13.6,4.0,29.62,West,270,4.0,11.0,65,0.00,,,0.00,Rainwise IP-100,2013-01-21 12:00:00,
2013-01-21 07:05:00,13.5,4.0,29.62,WSW,247,6.0,9.0,63,0.00,,,0.00,Rainwise IP-100,2013-01-21 12:05:00,
2013-01-21 07:10:00,13.4,4.0,29.62,WSW,247,6.0,11.0,64,0.00,,,0.00,Rainwise IP-100,2013-01-21 12:10:00,
2013-01-21 07:15:00,13.9,4.0,29.61,North,360,4.0,12.0,68,0.00,,,0.00,Rainwise IP-100,2013-01-21 12:15:00,
2013-01-21 07:20:00,13.5,4.0,29.61,West,270,6.0,10.0,63,0.00,,,0.00,Rainwise IP-100,2013-01-21 12:20:00,
2013-01-21 07:25:00,13.4,4.0,29.62,WSW,247,7.0,9.0,63,0.00,,,0.00,Rainwise IP-100,2013-01-21 12:25:00,
2013-01-21 07:30:00,13.3,4.0,29.63,WSW,247,4.0,9.0,65,0.00,,,0.00,Rainwise IP-100,2013-01-21 12:30:00,
2013-01-21 07:35:00,13.2,4.0,29.63,WSW,247,7.0,9.0,63,0.00,,,0.00,Rainwise IP-100,2013-01-21 12:35:00,
2013-01-21 07:40:00,13.4,4.0,29.63,WSW,247,7.0,9.0,67,0.00,,,0.00,Rainwise IP-100,2013-01-21 12:40:00,
2013-01-21 07:45:00,12.9,4.0,29.63,WSW,247,6.0,10.0,63,0.00,,,0.00,Rainwise IP-100,2013-01-21 12:45:00,
2013-01-21 07:50:00,13.1,4.0,29.63,WSW,247,7.0,11.0,63,0.00,,,0.00,Rainwise IP-100,2013-01-21 12:50:00,
2013-01-21 07:55:00,12.9,4.0,29.63,WSW,247,6.0,11.0,63,0.00,,,0.00,Rainwise IP-100,2013-01-21 12:55:00,
2013-01-21 08:00:00,13.2,4.0,29.63,West,270,5.0,12.0,63,0.00,,,0.00,Rainwise IP-100,2013-01-21 13:00:00,
2013-01-21 08:05:00,13.2,4.0,29.63,West,270,6.0,11.0,64,0.00,,,0.00,Rainwise IP-100,2013-01-21 13:05:00,
2013-01-21 08:10:00,13.3,4.0,29.63,SSW,202,5.0,8.0,64,0.00,,,0.00,Rainwise IP-100,2013-01-21 13:10:00,
2013-01-21 08:15:00,13.5,4.0,29.64,SW,225,5.0,12.0,60,0.00,,,0.00,Rainwise IP-100,2013-01-21 13:15:00,
2013-01-21 08:20:00,13.3,4.0,29.64,WSW,247,10.0,13.0,57,0.00,,,0.00,Rainwise IP-100,2013-01-21 13:20:00,
2013-01-21 08:25:00,14.1,4.0,29.66,WSW,247,6.0,11.0,62,0.00,,,0.00,Rainwise IP-100,2013-01-21 13:25:00,
2013-01-21 08:30:00,13.9,4.0,29.66,WSW,247,11.0,12.0,58,0.00,,,0.00,Rainwise IP-100,2013-01-21 13:30:00,
2013-01-21 08:35:00,14.1,4.0,29.67,WSW,247,4.0,12.0,59,0.00,,,0.00,Rainwise IP-100,2013-01-21 13:35:00,
2013-01-21 08:40:00,14.3,4.0,29.67,West,270,6.0,12.0,58,0.00,,,0.00,Rainwise IP-100,2013-01-21 13:40:00,
2013-01-21 08:45:00,14.5,4.0,29.67,SSW,202,4.0,11.0,59,0.00,,,0.00,Rainwise IP-100,2013-01-21 13:45:00,
2013-01-21 08:50:00,14.4,0.0,29.67,West,270,7.0,10.0,55,0.00,,,0.00,Rainwise IP-100,2013-01-21 13:50:00,
2013-01-21 08:55:00,14.3,0.0,29.67,WSW,247,4.0,11.0,56,0.00,,,0.00,Rainwise IP-100,2013-01-21 13:55:00,
2013-01-21 09:00:00,14.9,8.0,29.68,West,270,6.0,7.0,62,0.00,,,0.00,Rainwise IP-100,2013-01-21 14:00:00,
2013-01-21 09:05:00,14.9,4.0,29.68,NNW,337,4.0,8.0,57,0.00,,,0.00,Rainwise IP-100,2013-01-21 14:05:00,
2013-01-21 09:10:00,14.9,4.0,29.68,WSW,247,6.0,8.0,55,0.00,,,0.00,Rainwise IP-100,2013-01-21 14:10:00,
2013-01-21 09:15:00,14.5,4.0,29.69,West,270,6.0,12.0,54,0.00,,,0.00,Rainwise IP-100,2013-01-21 14:15:00,
2013-01-21 09:20:00,14.4,0.0,29.69,WSW,247,7.0,11.0,54,0.00,,,0.00,Rainwise IP-100,2013-01-21 14:20:00,
2013-01-21 09:25:00,14.7,4.0,29.69,West,270,6.0,12.0,56,0.00,,,0.00,Rainwise IP-100,2013-01-21 14:25:00,
2013-01-21 09:30:00,14.7,4.0,29.69,SSW,202,2.0,10.0,55,0.00,,,0.00,Rainwise IP-100,2013-01-21 14:30:00,
2013-01-21 09:35:00,15.1,4.0,29.69,WSW,247,6.0,9.0,55,0.00,,,0.00,Rainwise IP-100,2013-01-21 14:35:00,
2013-01-21 09:40:00,14.9,4.0,29.69,West,270,7.0,12.0,53,0.00,,,0.00,Rainwise IP-100,2013-01-21 14:40:00,
2013-01-21 09:45:00,15.1,4.0,29.69,WSW,247,4.0,9.0,55,0.00,,,0.00,Rainwise IP-100,2013-01-21 14:45:00,
2013-01-21 09:50:00,15.4,4.0,29.69,WSW,247,4.0,9.0,55,0.00,,,0.00,Rainwise IP-100,2013-01-21 14:50:00,
2013-01-21 09:55:00,15.1,4.0,29.69,West,270,7.0,9.0,51,0.00,,,0.00,Rainwise IP-100,2013-01-21 14:55:00,
2013-01-21 10:00:00,15.4,4.0,29.69,WNW,292,2.0,9.0,53,0.00,,,0.00,Rainwise IP-100,2013-01-21 15:00:00,
2013-01-21 10:05:00,15.8,4.0,29.70,West,270,4.0,7.0,53,0.00,,,0.00,Rainwise IP-100,2013-01-21 15:05:00,
2013-01-21 10:10:00,15.8,4.0,29.70,West,270,4.0,9.0,53,0.00,,,0.00,Rainwise IP-100,2013-01-21 15:10:00,
2013-01-21 10:15:00,15.9,4.0,29.70,WSW,247,4.0,9.0,51,0.00,,,0.00,Rainwise IP-100,2013-01-21 15:15:00,
2013-01-21 10:20:00,15.9,4.0,29.70,WSW,247,5.0,8.0,53,0.00,,,0.00,Rainwise IP-100,2013-01-21 15:20:00,
2013-01-21 10:25:00,16.1,4.0,29.70,WSW,247,6.0,10.0,52,0.00,,,0.00,Rainwise IP-100,2013-01-21 15:25:00,
2013-01-21 10:30:00,16.1,4.0,29.70,WSW,247,3.0,8.0,50,0.00,,,0.00,Rainwise IP-100,2013-01-21 15:30:00,
2013-01-21 10:35:00,16.4,4.0,29.70,WSW,247,5.0,7.0,51,0.00,,,0.00,Rainwise IP-100,2013-01-21 15:35:00,
2013-01-21 10:40:00,16.5,4.0,29.70,West,270,4.0,9.0,51,0.00,,,0.00,Rainwise IP-100,2013-01-21 15:40:00,
2013-01-21 10:45:00,16.7,4.0,29.69,West,270,4.0,8.0,54,0.00,,,0.00,Rainwise IP-100,2013-01-21 15:45:00,
2013-01-21 10:50:00,16.8,4.0,29.68,West,270,4.0,6.0,51,0.00,,,0.00,Rainwise IP-100,2013-01-21 15:50:00,
2013-01-21 10:55:00,17.0,4.0,29.68,SW,225,4.0,7.0,50,0.00,,,0.00,Rainwise IP-100,2013-01-21 15:55:00,
2013-01-21 11:00:00,17.2,4.0,29.68,WSW,247,4.0,9.0,52,0.00,,,0.00,Rainwise IP-100,2013-01-21 16:00:00,
2013-01-21 11:05:00,17.5,4.0,29.68,SW,225,3.0,6.0,49,0.00,,,0.00,Rainwise IP-100,2013-01-21 16:05:00,
2013-01-21 11:10:00,17.6,4.0,29.68,North,360,2.0,6.0,48,0.00,,,0.00,Rainwise IP-100,2013-01-21 16:10:00,
2013-01-21 11:15:00,17.8,4.0,29.68,WSW,247,6.0,7.0,51,0.00,,,0.00,Rainwise IP-100,2013-01-21 16:15:00,
2013-01-21 11:20:00,17.8,4.0,29.67,WSW,247,4.0,7.0,49,0.00,,,0.00,Rainwise IP-100,2013-01-21 16:20:00,
2013-01-21 11:25:00,17.9,4.0,29.66,WSW,247,4.0,7.0,49,0.00,,,0.00,Rainwise IP-100,2013-01-21 16:25:00,
2013-01-21 11:30:00,17.7,4.0,29.66,West,270,4.0,12.0,47,0.00,,,0.00,Rainwise IP-100,2013-01-21 16:30:00,
2013-01-21 11:35:00,17.9,4.0,29.66,SW,225,3.0,7.0,50,0.00,,,0.00,Rainwise IP-100,2013-01-21 16:35:00,
2013-01-21 11:40:00,18.6,4.0,29.66,West,270,2.0,6.0,47,0.00,,,0.00,Rainwise IP-100,2013-01-21 16:40:00,
2013-01-21 11:45:00,18.4,4.0,29.66,WNW,292,2.0,6.0,48,0.00,,,0.00,Rainwise IP-100,2013-01-21 16:45:00,
2013-01-21 11:50:00,18.5,4.0,29.65,WSW,247,4.0,7.0,48,0.00,,,0.00,Rainwise IP-100,2013-01-21 16:50:00,
2013-01-21 11:55:00,18.9,8.0,29.65,South,180,1.0,7.0,51,0.00,,,0.00,Rainwise IP-100,2013-01-21 16:55:00,
2013-01-21 12:00:00,19.1,4.0,29.64,West,270,3.0,7.0,48,0.00,,,0.00,Rainwise IP-100,2013-01-21 17:00:00,
2013-01-21 12:05:00,18.9,4.0,29.64,WSW,247,3.0,9.0,45,0.00,,,0.00,Rainwise IP-100,2013-01-21 17:05:00,
2013-01-21 12:10:00,19.3,4.0,29.63,WNW,292,4.0,9.0,48,0.00,,,0.00,Rainwise IP-100,2013-01-21 17:10:00,
2013-01-21 12:15:00,19.0,4.0,29.63,NNW,337,4.0,7.0,43,0.00,,,0.00,Rainwise IP-100,2013-01-21 17:15:00,
2013-01-21 12:20:00,18.9,4.0,29.64,WSW,247,7.0,9.0,45,0.00,,,0.00,Rainwise IP-100,2013-01-21 17:20:00,
2013-01-21 12:25:00,18.6,4.0,29.64,SSW,202,2.0,7.0,44,0.00,,,0.00,Rainwise IP-100,2013-01-21 17:25:00,
2013-01-21 12:30:00,18.9,4.0,29.65,WNW,292,2.0,6.0,45,0.00,,,0.00,Rainwise IP-100,2013-01-21 17:30:00,
2013-01-21 12:35:00,19.2,4.0,29.65,WSW,247,6.0,6.0,46,0.00,,,0.00,Rainwise IP-100,2013-01-21 17:35:00,
2013-01-21 12:40:00,19.2,4.0,29.65,SSW,202,7.0,7.0,43,0.00,,,0.00,Rainwise IP-100,2013-01-21 17:40:00,
2013-01-21 12:45:00,19.2,4.0,29.65,West,270,2.0,9.0,41,0.00,,,0.00,Rainwise IP-100,2013-01-21 17:45:00,
2013-01-21 12:50:00,19.5,4.0,29.65,West,270,5.0,10.0,43,0.00,,,0.00,Rainwise IP-100,2013-01-21 17:50:00,
2013-01-21 12:55:00,19.5,4.0,29.64,WSW,247,7.0,11.0,43,0.00,,,0.00,Rainwise IP-100,2013-01-21 17:55:00,
2013-01-21 13:00:00,19.7,4.0,29.64,WSW,247,6.0,10.0,46,0.00,,,0.00,Rainwise IP-100,2013-01-21 18:00:00,
2013-01-21 13:05:00,19.2,0.0,29.64,WSW,247,4.0,9.0,39,0.00,,,0.00,Rainwise IP-100,2013-01-21 18:05:00,
2013-01-21 13:10:00,19.2,4.0,29.65,West,270,3.0,9.0,41,0.00,,,0.00,Rainwise IP-100,2013-01-21 18:10:00,
2013-01-21 13:15:00,19.2,4.0,29.64,WSW,247,6.0,7.0,44,0.00,,,0.00,Rainwise IP-100,2013-01-21 18:15:00,
2013-01-21 13:20:00,19.2,4.0,29.64,WSW,247,4.0,8.0,43,0.00,,,0.00,Rainwise IP-100,2013-01-21 18:20:00,
2013-01-21 13:25:00,19.2,4.0,29.64,SSW,202,5.0,9.0,42,0.00,,,0.00,Rainwise IP-100,2013-01-21 18:25:00,
2013-01-21 13:30:00,19.8,4.0,29.64,WSW,247,4.0,9.0,44,0.00,,,0.00,Rainwise IP-100,2013-01-21 18:30:00,
2013-01-21 13:35:00,19.8,0.0,29.64,WSW,247,5.0,7.0,39,0.00,,,0.00,Rainwise IP-100,2013-01-21 18:35:00,
2013-01-21 13:40:00,20.2,0.0,29.64,WSW,247,4.0,7.0,38,0.00,,,0.00,Rainwise IP-100,2013-01-21 18:40:00,
2013-01-21 13:45:00,20.3,0.0,29.64,WSW,247,2.0,9.0,40,0.00,,,0.00,Rainwise IP-100,2013-01-21 18:45:00,
2013-01-21 13:50:00,20.9,4.0,29.64,WSW,247,4.0,6.0,42,0.00,,,0.00,Rainwise IP-100,2013-01-21 18:50:00,
2013-01-21 13:55:00,20.9,4.0,29.64,WNW,292,2.0,7.0,45,0.00,,,0.00,Rainwise IP-100,2013-01-21 18:55:00,
2013-01-21 14:00:00,20.9,0.0,29.64,WSW,247,4.0,7.0,38,0.00,,,0.00,Rainwise IP-100,2013-01-21 19:00:00,
2013-01-21 14:05:00,20.9,4.0,29.64,SW,225,2.0,7.0,42,0.00,,,0.00,Rainwise IP-100,2013-01-21 19:05:00,
2013-01-21 14:10:00,21.0,4.0,29.64,SW,225,4.0,7.0,41,0.00,,,0.00,Rainwise IP-100,2013-01-21 19:10:00,
2013-01-21 14:15:00,21.3,0.0,29.65,West,270,6.0,8.0,39,0.00,,,0.00,Rainwise IP-100,2013-01-21 19:15:00,
2013-01-21 14:20:00,20.8,0.0,29.66,WSW,247,5.0,7.0,37,0.00,,,0.00,Rainwise IP-100,2013-01-21 19:20:00,
2013-01-21 14:25:00,20.7,0.0,29.65,West,270,3.0,8.0,37,0.00,,,0.00,Rainwise IP-100,2013-01-21 19:25:00,
2013-01-21 14:30:00,21.1,4.0,29.65,West,270,2.0,7.0,41,0.00,,,0.00,Rainwise IP-100,2013-01-21 19:30:00,
2013-01-21 14:35:00,21.1,0.0,29.65,WSW,247,4.0,7.0,37,0.00,,,0.00,Rainwise IP-100,2013-01-21 19:35:00,
2013-01-21 14:40:00,21.2,0.0,29.66,SSE,157,1.0,6.0,38,0.00,,,0.00,Rainwise IP-100,2013-01-21 19:40:00,
2013-01-21 14:45:00,21.4,0.0,29.66,SW,225,3.0,6.0,40,0.00,,,0.00,Rainwise IP-100,2013-01-21 19:45:00,
2013-01-21 14:50:00,21.4,0.0,29.64,SW,225,2.0,6.0,37,0.00,,,0.00,Rainwise IP-100,2013-01-21 19:50:00,
2013-01-21 14:55:00,21.1,0.0,29.65,West,270,2.0,5.0,37,0.00,,,0.00,Rainwise IP-100,2013-01-21 19:55:00,
2013-01-21 15:00:00,20.2,0.0,29.66,WSW,247,3.0,4.0,37,0.00,,,0.00,Rainwise IP-100,2013-01-21 20:00:00,
2013-01-21 15:05:00,19.9,0.0,29.66,NW,315,2.0,4.0,40,0.00,,,0.00,Rainwise IP-100,2013-01-21 20:05:00,
2013-01-21 15:10:00,19.6,0.0,29.66,WSW,247,1.0,2.0,40,0.00,,,0.00,Rainwise IP-100,2013-01-21 20:10:00,
2013-01-21 15:15:00,19.7,4.0,29.65,SW,225,2.0,3.0,42,0.00,,,0.00,Rainwise IP-100,2013-01-21 20:15:00,
2013-01-21 15:20:00,19.7,4.0,29.65,WSW,247,1.0,3.0,43,0.00,,,0.00,Rainwise IP-100,2013-01-21 20:20:00,
2013-01-21 15:25:00,19.8,4.0,29.65,West,270,0.0,2.0,42,0.00,,,0.00,Rainwise IP-100,2013-01-21 20:25:00,
2013-01-21 15:30:00,19.9,4.0,29.64,SSW,202,1.0,3.0,43,0.00,,,0.00,Rainwise IP-100,2013-01-21 20:30:00,
2013-01-21 15:35:00,19.7,0.0,29.64,NNW,337,2.0,4.0,40,0.00,,,0.00,Rainwise IP-100,2013-01-21 20:35:00,
2013-01-21 15:40:00,19.5,4.0,29.65,WSW,247,2.0,3.0,41,0.00,,,0.00,Rainwise IP-100,2013-01-21 20:40:00,
2013-01-21 15:45:00,19.4,4.0,29.64,SSW,202,0.0,3.0,41,0.00,,,0.00,Rainwise IP-100,2013-01-21 20:45:00,
2013-01-21 15:50:00,19.4,4.0,29.65,WSW,247,1.0,2.0,43,0.00,,,0.00,Rainwise IP-100,2013-01-21 20:50:00,
2013-01-21 15:55:00,19.4,4.0,29.65,West,270,2.0,2.0,41,0.00,,,0.00,Rainwise IP-100,2013-01-21 20:55:00,
2013-01-21 16:00:00,19.3,4.0,29.64,SW,225,1.0,2.0,41,0.00,,,0.00,Rainwise IP-100,2013-01-21 21:00:00,
2013-01-21 16:05:00,19.4,4.0,29.64,WSW,247,1.0,4.0,42,0.00,,,0.00,Rainwise IP-100,2013-01-21 21:05:00,
2013-01-21 16:10:00,19.4,4.0,29.64,West,270,1.0,3.0,42,0.00,,,0.00,Rainwise IP-100,2013-01-21 21:10:00,
2013-01-21 16:15:00,19.3,0.0,29.64,NW,315,0.0,2.0,39,0.00,,,0.00,Rainwise IP-100,2013-01-21 21:15:00,
2013-01-21 16:20:00,19.2,4.0,29.64,North,360,1.0,2.0,42,0.00,,,0.00,Rainwise IP-100,2013-01-21 21:20:00,
2013-01-21 16:25:00,19.1,4.0,29.64,WNW,292,0.0,2.0,43,0.00,,,0.00,Rainwise IP-100,2013-01-21 21:25:00,
2013-01-21 16:30:00,18.9,4.0,29.64,WNW,292,0.0,0.0,44,0.00,,,0.00,Rainwise IP-100,2013-01-21 21:30:00,
2013-01-21 16:35:00,18.8,4.0,29.64,South,180,0.0,0.0,46,0.00,,,0.00,Rainwise IP-100,2013-01-21 21:35:00,
2013-01-21 16:40:00,18.7,4.0,29.64,South,180,0.0,1.0,48,0.00,,,0.00,Rainwise IP-100,2013-01-21 21:40:00,
2013-01-21 16:45:00,18.7,4.0,29.64,South,180,0.0,0.0,49,0.00,,,0.00,Rainwise IP-100,2013-01-21 21:45:00,
2013-01-21 16:50:00,18.7,8.0,29.63,South,180,0.0,0.0,51,0.00,,,0.00,Rainwise IP-100,2013-01-21 21:50:00,
2013-01-21 16:55:00,18.6,8.0,29.63,ESE,112,0.0,2.0,50,0.00,,,0.00,Rainwise IP-100,2013-01-21 21:55:00,
2013-01-21 17:00:00,18.4,4.0,29.63,ESE,112,1.0,2.0,48,0.00,,,0.00,Rainwise IP-100,2013-01-21 22:00:00,
2013-01-21 17:05:00,18.3,4.0,29.63,ESE,112,1.0,2.0,49,0.00,,,0.00,Rainwise IP-100,2013-01-21 22:05:00,
2013-01-21 17:10:00,18.2,4.0,29.63,SE,135,1.0,2.0,48,0.00,,,0.00,Rainwise IP-100,2013-01-21 22:10:00,
2013-01-21 17:15:00,18.1,4.0,29.63,SE,135,0.0,2.0,51,0.00,,,0.00,Rainwise IP-100,2013-01-21 22:15:00,
2013-01-21 17:20:00,18.0,4.0,29.62,SE,135,1.0,2.0,51,0.00,,,0.00,Rainwise IP-100,2013-01-21 22:20:00,
2013-01-21 17:25:00,17.9,4.0,29.62,ESE,112,2.0,2.0,51,0.00,,,0.00,Rainwise IP-100,2013-01-21 22:25:00,
2013-01-21 17:30:00,17.9,4.0,29.63,ESE,112,2.0,2.0,50,0.00,,,0.00,Rainwise IP-100,2013-01-21 22:30:00,
2013-01-21 17:35:00,17.9,4.0,29.63,ESE,112,2.0,2.0,53,0.00,,,0.00,Rainwise IP-100,2013-01-21 22:35:00,
2013-01-21 17:40:00,17.9,4.0,29.62,ESE,112,1.0,2.0,49,0.00,,,0.00,Rainwise IP-100,2013-01-21 22:40:00,
2013-01-21 17:45:00,17.9,4.0,29.62,ESE,112,1.0,2.0,52,0.00,,,0.00,Rainwise IP-100,2013-01-21 22:45:00,
2013-01-21 17:50:00,18.0,4.0,29.62,ESE,112,2.0,2.0,54,0.00,,,0.00,Rainwise IP-100,2013-01-21 22:50:00,
2013-01-21 17:55:00,18.0,4.0,29.62,ESE,112,1.0,2.0,50,0.00,,,0.00,Rainwise IP-100,2013-01-21 22:55:00,
2013-01-21 18:00:00,17.9,4.0,29.62,ESE,112,1.0,2.0,51,0.00,,,0.00,Rainwise IP-100,2013-01-21 23:00:00,
2013-01-21 18:05:00,17.9,4.0,29.62,ESE,112,2.0,2.0,54,0.00,,,0.00,Rainwise IP-100,2013-01-21 23:05:00,
2013-01-21 18:10:00,17.9,8.0,29.62,ESE,112,2.0,2.0,55,0.00,,,0.00,Rainwise IP-100,2013-01-21 23:10:00,
2013-01-21 18:15:00,17.8,8.0,29.62,ESE,112,2.0,2.0,55,0.00,,,0.00,Rainwise IP-100,2013-01-21 23:15:00,
2013-01-21 18:20:00,17.8,8.0,29.62,ESE,112,2.0,2.0,56,0.00,,,0.00,Rainwise IP-100,2013-01-21 23:20:00,
2013-01-21 18:25:00,17.7,8.0,29.62,ESE,112,1.0,2.0,57,0.00,,,0.00,Rainwise IP-100,2013-01-21 23:25:00,
2013-01-21 18:30:00,17.6,8.0,29.62,ESE,112,1.0,2.0,55,0.00,,,0.00,Rainwise IP-100,2013-01-21 23:30:00,
2013-01-21 18:35:00,17.7,8.0,29.62,ESE,112,0.0,2.0,56,0.00,,,0.00,Rainwise IP-100,2013-01-21 23:35:00,
2013-01-21 18:40:00,17.8,8.0,29.62,ESE,112,1.0,2.0,56,0.00,,,0.00,Rainwise IP-100,2013-01-21 23:40:00,
2013-01-21 18:45:00,17.8,8.0,29.61,ESE,112,1.0,2.0,56,0.00,,,0.00,Rainwise IP-100,2013-01-21 23:45:00,
2013-01-21 18:50:00,17.9,8.0,29.61,ESE,112,2.0,2.0,56,0.00,,,0.00,Rainwise IP-100,2013-01-21 23:50:00,
2013-01-21 18:55:00,17.9,8.0,29.62,ESE,112,1.0,2.0,56,0.00,,,0.00,Rainwise IP-100,2013-01-21 23:55:00,
2013-01-21 19:00:00,17.9,8.0,29.62,ESE,112,0.0,2.0,55,0.00,,,0.00,Rainwise IP-100,2013-01-22 00:00:00,
2013-01-21 19:05:00,17.9,8.0,29.61,ESE,112,0.0,2.0,56,0.00,,,0.00,Rainwise IP-100,2013-01-22 00:05:00,
2013-01-21 19:10:00,17.9,8.0,29.61,ESE,112,2.0,2.0,59,0.00,,,0.00,Rainwise IP-100,2013-01-22 00:10:00,
2013-01-21 19:15:00,17.9,8.0,29.61,ESE,112,1.0,2.0,58,0.00,,,0.00,Rainwise IP-100,2013-01-22 00:15:00,
2013-01-21 19:20:00,17.9,8.0,29.62,ESE,112,1.0,2.0,57,0.00,,,0.00,Rainwise IP-100,2013-01-22 00:20:00,
2013-01-21 19:25:00,18.0,8.0,29.61,ESE,112,2.0,2.0,57,0.00,,,0.00,Rainwise IP-100,2013-01-22 00:25:00,
2013-01-21 19:30:00,18.0,8.0,29.62,ESE,112,1.0,2.0,58,0.00,,,0.00,Rainwise IP-100,2013-01-22 00:30:00,
2013-01-21 19:35:00,17.9,8.0,29.62,ESE,112,2.0,2.0,56,0.00,,,0.00,Rainwise IP-100,2013-01-22 00:35:00,
2013-01-21 19:40:00,17.9,8.0,29.62,ESE,112,1.0,2.0,57,0.00,,,0.00,Rainwise IP-100,2013-01-22 00:40:00,
2013-01-21 19:45:00,17.9,8.0,29.62,ESE,112,1.0,2.0,58,0.00,,,0.00,Rainwise IP-100,2013-01-22 00:45:00,
2013-01-21 19:50:00,17.9,8.0,29.62,ESE,112,2.0,2.0,58,0.00,,,0.00,Rainwise IP-100,2013-01-22 00:50:00,
2013-01-21 19:55:00,18.0,8.0,29.62,ESE,112,1.0,2.0,61,0.00,,,0.00,Rainwise IP-100,2013-01-22 00:55:00,
2013-01-21 20:00:00,18.0,8.0,29.62,SE,135,2.0,2.0,61,0.00,,,0.00,Rainwise IP-100,2013-01-22 01:00:00,
2013-01-21 20:05:00,18.1,8.0,29.63,SSE,157,0.0,2.0,59,0.00,,,0.00,Rainwise IP-100,2013-01-22 01:05:00,
2013-01-21 20:10:00,18.1,8.0,29.63,ESE,112,2.0,2.0,58,0.00,,,0.00,Rainwise IP-100,2013-01-22 01:10:00,
2013-01-21 20:15:00,18.1,8.0,29.63,ESE,112,1.0,2.0,57,0.00,,,0.00,Rainwise IP-100,2013-01-22 01:15:00,
2013-01-21 20:20:00,18.2,8.0,29.62,ESE,112,1.0,2.0,58,0.00,,,0.00,Rainwise IP-100,2013-01-22 01:20:00,
2013-01-21 20:25:00,18.1,8.0,29.62,ESE,112,0.0,2.0,59,0.00,,,0.00,Rainwise IP-100,2013-01-22 01:25:00,
2013-01-21 20:30:00,18.1,8.0,29.62,ESE,112,0.0,0.0,59,0.00,,,0.00,Rainwise IP-100,2013-01-22 01:30:00,
2013-01-21 20:35:00,18.1,8.0,29.62,North,360,0.0,2.0,55,0.00,,,0.00,Rainwise IP-100,2013-01-22 01:35:00,
2013-01-21 20:40:00,18.2,8.0,29.62,North,360,0.0,2.0,56,0.00,,,0.00,Rainwise IP-100,2013-01-22 01:40:00,
2013-01-21 20:45:00,18.2,8.0,29.62,East,90,2.0,4.0,56,0.00,,,0.00,Rainwise IP-100,2013-01-22 01:45:00,
2013-01-21 20:50:00,18.3,4.0,29.62,East,90,2.0,2.0,54,0.00,,,0.00,Rainwise IP-100,2013-01-22 01:50:00,
2013-01-21 20:55:00,18.5,8.0,29.62,East,90,2.0,2.0,53,0.00,,,0.00,Rainwise IP-100,2013-01-22 01:55:00,
2013-01-21 21:00:00,18.6,8.0,29.62,East,90,1.0,2.0,53,0.00,,,0.00,Rainwise IP-100,2013-01-22 02:00:00,
2013-01-21 21:05:00,18.5,8.0,29.62,East,90,1.0,2.0,54,0.00,,,0.00,Rainwise IP-100,2013-01-22 02:05:00,
2013-01-21 21:10:00,18.5,11.0,29.62,East,90,1.0,2.0,60,0.00,,,0.00,Rainwise IP-100,2013-01-22 02:10:00,
2013-01-21 21:15:00,18.6,11.0,29.62,East,90,0.0,2.0,61,0.00,,,0.00,Rainwise IP-100,2013-01-22 02:15:00,
2013-01-21 21:20:00,18.7,11.0,29.62,NW,315,0.0,2.0,62,0.00,,,0.00,Rainwise IP-100,2013-01-22 02:20:00,
2013-01-21 21:25:00,18.8,11.0,29.62,NNW,337,0.0,2.0,63,0.00,,,0.00,Rainwise IP-100,2013-01-22 02:25:00,
2013-01-21 21:30:00,18.8,11.0,29.62,NNW,337,0.0,0.0,64,0.00,,,0.00,Rainwise IP-100,2013-01-22 02:30:00,
2013-01-21 21:35:00,18.7,11.0,29.62,NNW,337,0.0,0.0,65,0.00,,,0.00,Rainwise IP-100,2013-01-22 02:35:00,
2013-01-21 21:40:00,18.8,11.0,29.62,ESE,112,2.0,3.0,64,0.00,,,0.00,Rainwise IP-100,2013-01-22 02:40:00,
2013-01-21 21:45:00,18.9,11.0,29.62,ESE,112,0.0,2.0,67,0.00,,,0.00,Rainwise IP-100,2013-01-22 02:45:00,
2013-01-21 21:50:00,18.9,11.0,29.63,ESE,112,1.0,2.0,66,0.00,,,0.00,Rainwise IP-100,2013-01-22 02:50:00,
2013-01-21 21:55:00,18.9,11.0,29.62,ESE,112,0.0,2.0,66,0.00,,,0.00,Rainwise IP-100,2013-01-22 02:55:00,
2013-01-21 22:00:00,18.8,11.0,29.62,East,90,0.0,2.0,67,0.00,,,0.00,Rainwise IP-100,2013-01-22 03:00:00,
2013-01-21 22:05:00,18.8,11.0,29.62,East,90,0.0,1.0,67,0.00,,,0.00,Rainwise IP-100,2013-01-22 03:05:00,
2013-01-21 22:10:00,18.7,11.0,29.62,North,360,0.0,2.0,67,0.00,,,0.00,Rainwise IP-100,2013-01-22 03:10:00,
2013-01-21 22:15:00,18.7,11.0,29.62,ESE,112,0.0,2.0,67,0.00,,,0.00,Rainwise IP-100,2013-01-22 03:15:00,
2013-01-21 22:20:00,18.6,11.0,29.62,WNW,292,2.0,4.0,68,0.00,,,0.00,Rainwise IP-100,2013-01-22 03:20:00,
2013-01-21 22:25:00,18.5,14.0,29.62,North,360,1.0,2.0,69,0.00,,,0.00,Rainwise IP-100,2013-01-22 03:25:00,
2013-01-21 22:30:00,18.5,11.0,29.62,North,360,1.0,2.0,66,0.00,,,0.00,Rainwise IP-100,2013-01-22 03:30:00,
2013-01-21 22:35:00,18.4,11.0,29.62,ESE,112,2.0,5.0,65,0.00,,,0.00,Rainwise IP-100,2013-01-22 03:35:00,
2013-01-21 22:40:00,18.3,11.0,29.62,North,360,0.0,6.0,71,0.00,,,0.00,Rainwise IP-100,2013-01-22 03:40:00,
2013-01-21 22:45:00,18.0,11.0,29.62,ESE,112,1.0,7.0,74,0.00,,,0.00,Rainwise IP-100,2013-01-22 03:45:00,
2013-01-21 22:50:00,17.6,14.0,29.61,North,360,0.0,7.0,78,0.00,,,0.00,Rainwise IP-100,2013-01-22 03:50:00,
2013-01-21 22:55:00,17.3,14.0,29.61,SSE,157,0.0,4.0,81,0.00,,,0.00,Rainwise IP-100,2013-01-22 03:55:00,
2013-01-21 23:00:00,17.0,14.0,29.60,South,180,1.0,6.0,83,0.00,,,0.00,Rainwise IP-100,2013-01-22 04:00:00,
2013-01-21 23:05:00,16.9,14.0,29.60,East,90,1.0,2.0,84,0.00,,,0.00,Rainwise IP-100,2013-01-22 04:05:00,
2013-01-21 23:10:00,16.7,16.0,29.59,NNW,337,0.0,2.0,86,0.00,,,0.00,Rainwise IP-100,2013-01-22 04:10:00,
2013-01-21 23:15:00,16.5,16.0,29.58,SSE,157,0.0,3.0,88,0.00,,,0.00,Rainwise IP-100,2013-01-22 04:15:00,
2013-01-21 23:20:00,16.4,14.0,29.57,West,270,0.0,2.0,89,0.00,,,0.00,Rainwise IP-100,2013-01-22 04:20:00,
2013-01-21 23:25:00,16.2,14.0,29.56,East,90,0.0,3.0,91,0.00,,,0.00,Rainwise IP-100,2013-01-22 04:25:00,
2013-01-21 23:30:00,16.1,14.0,29.57,NNW,337,1.0,5.0,92,0.00,,,0.00,Rainwise IP-100,2013-01-22 04:30:00,
2013-01-21 23:35:00,15.9,14.0,29.57,NNW,337,0.0,4.0,93,0.00,,,0.00,Rainwise IP-100,2013-01-22 04:35:00,
2013-01-21 23:40:00,15.9,14.0,29.57,North,360,0.0,2.0,93,0.00,,,0.00,Rainwise IP-100,2013-01-22 04:40:00,
2013-01-21 23:45:00,15.8,14.0,29.56,SE,135,0.0,2.0,93,0.00,,,0.00,Rainwise IP-100,2013-01-22 04:45:00,
2013-01-21 23:50:00,15.7,14.0,29.55,West,270,1.0,2.0,93,0.00,,,0.00,Rainwise IP-100,2013-01-22 04:50:00,
2013-01-21 23:55:00,15.5,14.0,29.54,North,360,0.0,3.0,93,0.00,,,0.00,Rainwise IP-100,2013-01-22 04:55:00,